Time,TemperatureF,DewpointF,PressureIn,WindDirection,WindDirectionDegrees,WindSpeedMPH,WindSpeedGustMPH,Humidity,HourlyPrecipIn,Conditions,Clouds,dailyrainin,SoftwareType,DateUTC
2013-06-19 00:01:00,70.9,65.1,29.96,NW,315,0.0,0.0,82,0.00,,,0.00,WUHU21623XXSP,2013-06-19 05:01:00,
2013-06-19 00:06:00,70.7,64.9,29.95,NW,315,0.0,0.0,82,0.00,,,0.00,WUHU21623XXSP,2013-06-19 05:06:00,
2013-06-19 00:11:00,70.7,64.9,29.95,NW,315,0.0,0.0,82,0.00,,,0.00,WUHU21623XXSP,2013-06-19 05:11:00,
2013-06-19 00:16:00,70.5,65.1,29.96,NW,315,0.0,0.0,83,0.00,,,0.00,WUHU21623XXSP,2013-06-19 05:16:00,
2013-06-19 00:21:00,70.3,64.9,29.96,NW,315,0.0,0.0,83,0.00,,,0.00,WUHU21623XXSP,2013-06-19 05:21:00,
2013-06-19 00:26:00,70.3,64.9,29.95,NW,315,0.0,0.0,83,0.00,,,0.00,WUHU21623XXSP,2013-06-19 05:26:00,
2013-06-19 00:31:00,70.2,64.7,29.96,NW,315,0.0,0.0,83,0.00,,,0.00,WUHU21623XXSP,2013-06-19 05:31:00,
2013-06-19 00:36:00,70.2,64.7,29.95,NW,315,0.0,0.0,83,0.00,,,0.00,WUHU21623XXSP,2013-06-19 05:36:00,
2013-06-19 00:41:00,70.0,64.5,29.95,NW,315,0.0,0.0,83,0.00,,,0.00,WUHU21623XXSP,2013-06-19 05:41:00,
2013-06-19 00:46:00,70.0,64.5,29.95,NW,315,0.0,0.0,83,0.00,,,0.00,WUHU21623XXSP,2013-06-19 05:46:00,
2013-06-19 00:51:00,70.0,64.5,29.95,NW,315,0.0,0.0,83,0.00,,,0.00,WUHU21623XXSP,2013-06-19 05:51:00,
2013-06-19 00:56:00,69.8,64.3,29.95,NW,315,0.0,0.0,83,0.00,,,0.00,WUHU21623XXSP,2013-06-19 05:56:00,
2013-06-19 01:01:00,69.6,64.2,29.95,NW,315,0.0,0.0,83,0.00,,,0.00,WUHU21623XXSP,2013-06-19 06:01:00,
2013-06-19 01:06:00,69.4,64.0,29.95,NW,315,0.0,0.0,83,0.00,,,0.00,WUHU21623XXSP,2013-06-19 06:06:00,
2013-06-19 01:11:00,69.4,64.3,29.95,NW,315,0.0,0.0,84,0.00,,,0.00,WUHU21623XXSP,2013-06-19 06:11:00,
2013-06-19 01:16:00,69.4,64.3,29.95,NW,315,0.0,0.0,84,0.00,,,0.00,WUHU21623XXSP,2013-06-19 06:16:00,
2013-06-19 01:21:00,69.4,64.3,29.95,NW,315,0.0,0.0,84,0.00,,,0.00,WUHU21623XXSP,2013-06-19 06:21:00,
2013-06-19 01:26:00,69.3,64.2,29.95,NW,315,0.0,0.0,84,0.00,,,0.00,WUHU21623XXSP,2013-06-19 06:26:00,
2013-06-19 01:31:00,69.3,64.2,29.95,NW,315,0.0,0.0,84,0.00,,,0.00,WUHU21623XXSP,2013-06-19 06:31:00,
2013-06-19 01:36:00,69.3,64.2,29.95,NW,315,0.0,0.0,84,0.00,,,0.00,WUHU21623XXSP,2013-06-19 06:36:00,
2013-06-19 01:41:00,69.1,64.0,29.95,NW,315,0.0,0.0,84,0.00,,,0.00,WUHU21623XXSP,2013-06-19 06:41:00,
2013-06-19 01:46:00,68.9,63.8,29.95,NW,315,0.0,0.0,84,0.00,,,0.00,WUHU21623XXSP,2013-06-19 06:46:00,
2013-06-19 01:51:00,68.9,63.8,29.95,NW,315,0.0,0.0,84,0.00,,,0.00,WUHU21623XXSP,2013-06-19 06:51:00,
2013-06-19 01:56:00,68.7,64.0,29.95,NW,315,0.0,0.0,85,0.00,,,0.00,WUHU21623XXSP,2013-06-19 06:56:00,
2013-06-19 02:01:00,68.7,64.0,29.95,NW,315,0.0,0.0,85,0.00,,,0.00,WUHU21623XXSP,2013-06-19 07:01:00,
2013-06-19 02:06:00,68.5,63.8,29.94,NW,315,0.0,0.0,85,0.00,,,0.00,WUHU21623XXSP,2013-06-19 07:06:00,
2013-06-19 02:11:00,68.5,63.8,29.94,NW,315,0.0,0.0,85,0.00,,,0.00,WUHU21623XXSP,2013-06-19 07:11:00,
2013-06-19 02:16:00,68.4,63.7,29.94,NW,315,0.0,0.0,85,0.00,,,0.00,WUHU21623XXSP,2013-06-19 07:16:00,
2013-06-19 02:21:00,68.4,63.7,29.94,NW,315,0.0,0.0,85,0.00,,,0.00,WUHU21623XXSP,2013-06-19 07:21:00,
2013-06-19 02:26:00,68.4,63.7,29.95,NW,315,0.0,0.0,85,0.00,,,0.00,WUHU21623XXSP,2013-06-19 07:26:00,
2013-06-19 02:31:00,68.2,63.5,29.94,NW,315,0.0,0.0,85,0.00,,,0.00,WUHU21623XXSP,2013-06-19 07:31:00,
2013-06-19 02:36:00,68.0,63.3,29.94,NW,315,0.0,0.0,85,0.00,,,0.00,WUHU21623XXSP,2013-06-19 07:36:00,
2013-06-19 02:41:00,68.0,63.3,29.95,NW,315,0.0,0.0,85,0.00,,,0.00,WUHU21623XXSP,2013-06-19 07:41:00,
2013-06-19 02:46:00,68.0,63.3,29.95,NW,315,0.0,0.0,85,0.00,,,0.00,WUHU21623XXSP,2013-06-19 07:46:00,
2013-06-19 02:51:00,67.6,63.0,29.95,NW,315,0.0,0.0,85,0.00,,,0.00,WUHU21623XXSP,2013-06-19 07:51:00,
2013-06-19 02:56:00,67.6,63.3,29.94,NW,315,0.0,0.0,86,0.00,,,0.00,WUHU21623XXSP,2013-06-19 07:56:00,
2013-06-19 03:01:00,67.5,63.1,29.94,NW,315,0.0,0.0,86,0.00,,,0.00,WUHU21623XXSP,2013-06-19 08:01:00,
2013-06-19 03:06:00,67.5,63.1,29.94,NW,315,0.0,0.0,86,0.00,,,0.00,WUHU21623XXSP,2013-06-19 08:06:00,
2013-06-19 03:11:00,67.5,63.1,29.94,NW,315,0.0,0.0,86,0.00,,,0.00,WUHU21623XXSP,2013-06-19 08:11:00,
2013-06-19 03:16:00,67.3,62.9,29.94,NW,315,0.0,0.0,86,0.00,,,0.00,WUHU21623XXSP,2013-06-19 08:16:00,
2013-06-19 03:21:00,67.5,63.1,29.94,NW,315,0.0,0.0,86,0.00,,,0.00,WUHU21623XXSP,2013-06-19 08:21:00,
2013-06-19 03:26:00,67.5,63.1,29.94,NW,315,0.0,0.0,86,0.00,,,0.00,WUHU21623XXSP,2013-06-19 08:26:00,
2013-06-19 03:31:00,67.3,62.9,29.94,NW,315,0.0,0.0,86,0.00,,,0.00,WUHU21623XXSP,2013-06-19 08:31:00,
2013-06-19 03:36:00,67.1,62.7,29.94,NW,315,0.0,0.0,86,0.00,,,0.00,WUHU21623XXSP,2013-06-19 08:36:00,
2013-06-19 03:41:00,67.1,62.7,29.94,NW,315,0.0,0.0,86,0.00,,,0.00,WUHU21623XXSP,2013-06-19 08:41:00,
2013-06-19 03:46:00,67.1,62.7,29.94,NW,315,0.0,0.0,86,0.00,,,0.00,WUHU21623XXSP,2013-06-19 08:46:00,
2013-06-19 03:51:00,67.3,62.9,29.95,NW,315,0.0,0.0,86,0.00,,,0.00,WUHU21623XXSP,2013-06-19 08:51:00,
2013-06-19 03:56:00,67.1,62.7,29.95,NW,315,0.0,0.0,86,0.00,,,0.00,WUHU21623XXSP,2013-06-19 08:56:00,
2013-06-19 04:01:00,67.1,62.7,29.95,NW,315,0.0,0.0,86,0.00,,,0.00,WUHU21623XXSP,2013-06-19 09:01:00,
2013-06-19 04:06:00,67.1,62.7,29.95,NW,315,0.0,0.0,86,0.00,,,0.00,WUHU21623XXSP,2013-06-19 09:06:00,
2013-06-19 04:11:00,66.9,62.6,29.95,NW,315,0.0,0.0,86,0.00,,,0.00,WUHU21623XXSP,2013-06-19 09:11:00,
2013-06-19 04:16:00,66.9,62.9,29.95,NW,315,0.0,0.0,87,0.00,,,0.00,WUHU21623XXSP,2013-06-19 09:16:00,
2013-06-19 04:21:00,66.6,62.5,29.95,NW,315,0.0,0.0,87,0.00,,,0.00,WUHU21623XXSP,2013-06-19 09:21:00,
2013-06-19 04:26:00,66.6,62.5,29.95,NW,315,0.0,0.0,87,0.00,,,0.00,WUHU21623XXSP,2013-06-19 09:26:00,
2013-06-19 04:31:00,66.6,62.5,29.95,NW,315,0.0,0.0,87,0.00,,,0.00,WUHU21623XXSP,2013-06-19 09:31:00,
2013-06-19 04:36:00,66.7,63.0,29.95,NW,315,0.0,0.0,88,0.00,,,0.00,WUHU21623XXSP,2013-06-19 09:36:00,
2013-06-19 04:41:00,66.6,62.9,29.96,NW,315,0.0,0.0,88,0.00,,,0.00,WUHU21623XXSP,2013-06-19 09:41:00,
2013-06-19 04:46:00,66.6,62.9,29.96,NW,315,0.0,0.0,88,0.00,,,0.00,WUHU21623XXSP,2013-06-19 09:46:00,
2013-06-19 04:51:00,66.4,62.7,29.96,NW,315,0.0,0.0,88,0.00,,,0.00,WUHU21623XXSP,2013-06-19 09:51:00,
2013-06-19 04:56:00,66.2,62.5,29.96,NW,315,0.0,0.0,88,0.00,,,0.00,WUHU21623XXSP,2013-06-19 09:56:00,
2013-06-19 05:01:00,66.0,62.3,29.97,NW,315,0.0,0.0,88,0.00,,,0.00,WUHU21623XXSP,2013-06-19 10:01:00,
2013-06-19 05:06:00,65.8,62.2,29.97,NW,315,0.0,0.0,88,0.00,,,0.00,WUHU21623XXSP,2013-06-19 10:06:00,
2013-06-19 05:11:00,65.8,62.2,29.97,NW,315,0.0,0.0,88,0.00,,,0.00,WUHU21623XXSP,2013-06-19 10:11:00,
2013-06-19 05:16:00,66.0,62.3,29.97,NW,315,0.0,0.0,88,0.00,,,0.00,WUHU21623XXSP,2013-06-19 10:16:00,
2013-06-19 05:21:00,66.0,62.3,29.97,NW,315,0.0,0.0,88,0.00,,,0.00,WUHU21623XXSP,2013-06-19 10:21:00,
2013-06-19 05:26:00,66.0,62.3,29.97,NW,315,0.0,0.0,88,0.00,,,0.00,WUHU21623XXSP,2013-06-19 10:26:00,
2013-06-19 05:31:00,66.2,62.5,29.97,NW,315,0.0,0.0,88,0.00,,,0.00,WUHU21623XXSP,2013-06-19 10:31:00,
2013-06-19 05:36:00,66.0,62.3,29.97,NW,315,0.0,0.0,88,0.00,,,0.00,WUHU21623XXSP,2013-06-19 10:36:00,
2013-06-19 05:41:00,66.0,62.3,29.97,NW,315,0.0,0.0,88,0.00,,,0.00,WUHU21623XXSP,2013-06-19 10:41:00,
2013-06-19 05:46:00,66.0,62.3,29.97,ESE,112,0.0,0.0,88,0.00,,,0.00,WUHU21623XXSP,2013-06-19 10:46:00,
2013-06-19 05:51:00,65.8,62.2,29.97,ESE,112,0.0,0.0,88,0.00,,,0.00,WUHU21623XXSP,2013-06-19 10:51:00,
2013-06-19 05:56:00,65.8,62.2,29.97,ESE,112,0.0,0.0,88,0.00,,,0.00,WUHU21623XXSP,2013-06-19 10:56:00,
2013-06-19 06:01:00,65.8,62.2,29.98,ESE,112,0.0,0.0,88,0.00,,,0.00,WUHU21623XXSP,2013-06-19 11:01:00,
2013-06-19 06:06:00,65.8,62.2,29.98,ESE,112,0.0,0.0,88,0.00,,,0.00,WUHU21623XXSP,2013-06-19 11:06:00,
2013-06-19 06:11:00,66.0,62.6,29.98,ESE,112,0.0,0.0,89,0.00,,,0.00,WUHU21623XXSP,2013-06-19 11:11:00,
2013-06-19 06:16:00,65.8,62.5,29.99,ESE,112,0.0,0.0,89,0.00,,,0.00,WUHU21623XXSP,2013-06-19 11:16:00,
2013-06-19 06:21:00,66.0,62.6,29.99,ESE,112,0.0,0.0,89,0.00,,,0.00,WUHU21623XXSP,2013-06-19 11:21:00,
2013-06-19 06:26:00,66.0,62.6,29.99,ESE,112,0.0,0.0,89,0.00,,,0.00,WUHU21623XXSP,2013-06-19 11:26:00,
2013-06-19 06:31:00,66.2,62.8,29.99,ESE,112,0.0,0.0,89,0.00,,,0.00,WUHU21623XXSP,2013-06-19 11:31:00,
2013-06-19 06:36:00,66.4,62.8,29.99,ESE,112,0.0,0.0,89,0.00,,,0.00,WUHU21623XXSP,2013-06-19 11:36:00,
2013-06-19 06:41:00,66.4,63.0,30.00,ESE,112,0.0,0.0,89,0.00,,,0.00,WUHU21623XXSP,2013-06-19 11:41:00,
2013-06-19 06:46:00,66.6,63.2,29.99,SE,135,0.0,0.0,89,0.00,,,0.00,WUHU21623XXSP,2013-06-19 11:46:00,
2013-06-19 06:51:00,66.9,63.5,29.99,WSW,247,0.0,0.0,89,0.00,,,0.00,WUHU21623XXSP,2013-06-19 11:51:00,
2013-06-19 06:56:00,66.9,63.5,29.99,WSW,247,0.0,0.0,89,0.00,,,0.00,WUHU21623XXSP,2013-06-19 11:56:00,
2013-06-19 07:01:00,67.1,63.4,29.99,WSW,247,0.0,0.0,88,0.00,,,0.00,WUHU21623XXSP,2013-06-19 12:01:00,
2013-06-19 07:06:00,67.6,64.3,29.99,WSW,247,0.0,0.0,89,0.00,,,0.00,WUHU21623XXSP,2013-06-19 12:06:00,
2013-06-19 07:11:00,67.6,64.3,29.99,WSW,247,0.0,0.0,89,0.00,,,0.00,WUHU21623XXSP,2013-06-19 12:11:00,
2013-06-19 07:16:00,68.4,65.0,30.00,SE,135,0.0,0.0,89,0.00,,,0.00,WUHU21623XXSP,2013-06-19 12:16:00,
2013-06-19 07:21:00,68.9,65.8,29.99,SE,135,0.0,0.0,90,0.00,,,0.00,WUHU21623XXSP,2013-06-19 12:21:00,
2013-06-19 07:26:00,69.3,65.9,30.00,SE,135,0.0,0.0,89,0.00,,,0.00,WUHU21623XXSP,2013-06-19 12:26:00,
2013-06-19 07:31:00,69.8,66.7,30.01,SE,135,0.0,0.0,90,0.00,,,0.00,WUHU21623XXSP,2013-06-19 12:31:00,
2013-06-19 07:36:00,70.0,66.9,30.01,ESE,112,0.0,0.0,90,0.00,,,0.00,WUHU21623XXSP,2013-06-19 12:36:00,
2013-06-19 07:41:00,70.3,67.3,30.01,ESE,112,0.0,0.0,90,0.00,,,0.00,WUHU21623XXSP,2013-06-19 12:41:00,
2013-06-19 07:46:00,70.5,67.5,30.01,ESE,112,0.0,0.0,90,0.00,,,0.00,WUHU21623XXSP,2013-06-19 12:46:00,
2013-06-19 07:51:00,70.5,67.5,30.01,ESE,112,0.0,0.0,90,0.00,,,0.00,WUHU21623XXSP,2013-06-19 12:51:00,
2013-06-19 07:56:00,70.7,67.3,30.01,ESE,112,0.0,0.0,89,0.00,,,0.00,WUHU21623XXSP,2013-06-19 12:56:00,
2013-06-19 08:01:00,70.9,67.5,30.02,ESE,112,0.0,0.0,89,0.00,,,0.00,WUHU21623XXSP,2013-06-19 13:01:00,
2013-06-19 08:06:00,71.1,68.0,30.02,ESE,112,0.0,0.0,90,0.00,,,0.00,WUHU21623XXSP,2013-06-19 13:06:00,
2013-06-19 08:11:00,71.4,68.4,30.02,SE,135,0.0,0.0,90,0.00,,,0.00,WUHU21623XXSP,2013-06-19 13:11:00,
2013-06-19 08:16:00,71.6,68.5,30.02,ESE,112,0.0,0.0,90,0.00,,,0.00,WUHU21623XXSP,2013-06-19 13:16:00,
2013-06-19 08:21:00,72.0,68.7,30.02,ESE,112,0.0,0.0,90,0.00,,,0.00,WUHU21623XXSP,2013-06-19 13:21:00,
2013-06-19 08:26:00,72.5,69.4,30.02,ESE,112,0.0,0.0,90,0.00,,,0.00,WUHU21623XXSP,2013-06-19 13:26:00,
2013-06-19 08:31:00,72.9,69.5,30.02,ESE,112,0.0,0.0,89,0.00,,,0.00,WUHU21623XXSP,2013-06-19 13:31:00,
2013-06-19 08:36:00,73.4,70.0,30.02,ESE,112,0.0,0.0,89,0.00,,,0.00,WUHU21623XXSP,2013-06-19 13:36:00,
2013-06-19 08:41:00,74.1,70.7,30.02,ESE,112,0.0,0.0,89,0.00,,,0.00,WUHU21623XXSP,2013-06-19 13:41:00,
2013-06-19 08:46:00,74.3,70.6,30.02,ESE,112,0.0,0.0,88,0.00,,,0.00,WUHU21623XXSP,2013-06-19 13:46:00,
2013-06-19 08:51:00,74.8,70.8,30.02,ESE,112,0.0,0.0,87,0.00,,,0.00,WUHU21623XXSP,2013-06-19 13:51:00,
2013-06-19 08:56:00,75.6,71.1,30.02,ESE,112,0.0,0.0,86,0.00,,,0.00,WUHU21623XXSP,2013-06-19 13:56:00,
2013-06-19 09:01:00,76.1,71.3,30.03,ESE,112,0.0,0.0,85,0.00,,,0.00,WUHU21623XXSP,2013-06-19 14:01:00,
2013-06-19 09:06:00,76.5,70.9,30.03,SE,135,0.0,0.0,83,0.00,,,0.00,WUHU21623XXSP,2013-06-19 14:06:00,
2013-06-19 09:18:00,78.1,71.2,30.02,ESE,113,0.0,0.0,79,0.00,,,0.00,WUHU21623XXSP,2013-06-19 14:18:00,
2013-06-19 09:23:00,79.0,71.1,30.03,ESE,112,0.0,0.0,77,0.00,,,0.00,WUHU21623XXSP,2013-06-19 14:23:00,
2013-06-19 09:28:00,79.3,71.1,30.03,ESE,112,0.0,0.0,76,0.00,,,0.00,WUHU21623XXSP,2013-06-19 14:28:00,
2013-06-19 09:33:00,79.7,70.7,30.03,ESE,112,0.0,0.0,74,0.00,,,0.00,WUHU21623XXSP,2013-06-19 14:33:00,
2013-06-19 09:38:00,80.1,70.2,30.02,South,180,0.0,0.0,72,0.00,,,0.00,WUHU21623XXSP,2013-06-19 14:38:00,
2013-06-19 09:43:00,80.2,70.0,30.02,SSW,202,0.0,0.0,71,0.00,,,0.00,WUHU21623XXSP,2013-06-19 14:43:00,
2013-06-19 09:48:00,80.8,69.7,30.02,West,270,0.0,0.0,69,0.00,,,0.00,WUHU21623XXSP,2013-06-19 14:48:00,
2013-06-19 09:53:00,81.0,70.3,30.02,SSE,157,0.0,0.0,70,0.00,,,0.00,WUHU21623XXSP,2013-06-19 14:53:00,
2013-06-19 09:58:00,81.7,70.0,30.02,ESE,112,0.0,0.0,69,0.00,,,0.00,WUHU21623XXSP,2013-06-19 14:58:00,
2013-06-19 10:03:00,82.6,70.9,30.02,ESE,112,0.0,0.0,68,0.00,,,0.00,WUHU21623XXSP,2013-06-19 15:03:00,
2013-06-19 10:08:00,83.1,71.0,30.01,ESE,112,0.0,0.0,67,0.00,,,0.00,WUHU21623XXSP,2013-06-19 15:08:00,
2013-06-19 10:13:00,83.5,70.0,30.02,SSW,202,0.0,0.0,64,0.00,,,0.00,WUHU21623XXSP,2013-06-19 15:13:00,
2013-06-19 10:18:00,83.5,69.5,30.02,SE,135,0.0,0.0,63,0.00,,,0.00,WUHU21623XXSP,2013-06-19 15:18:00,
2013-06-19 10:23:00,83.8,69.4,30.02,ESE,112,0.0,0.0,62,0.00,,,0.00,WUHU21623XXSP,2013-06-19 15:23:00,
2013-06-19 10:28:00,83.8,69.0,30.02,ESE,112,0.0,0.0,61,0.00,,,0.00,WUHU21623XXSP,2013-06-19 15:28:00,
2013-06-19 10:33:00,84.0,69.2,30.03,SE,135,0.0,0.0,61,0.00,,,0.00,WUHU21623XXSP,2013-06-19 15:33:00,
2013-06-19 10:38:00,84.0,69.2,30.02,ESE,112,0.0,0.0,61,0.00,,,0.00,WUHU21623XXSP,2013-06-19 15:38:00,
2013-06-19 10:43:00,84.0,68.7,30.02,ENE,67,0.0,0.0,60,0.00,,,0.00,WUHU21623XXSP,2013-06-19 15:43:00,
2013-06-19 10:48:00,84.4,69.1,30.02,East,90,0.0,0.0,60,0.00,,,0.00,WUHU21623XXSP,2013-06-19 15:48:00,
2013-06-19 10:53:00,84.9,69.5,30.03,SSE,157,0.0,0.0,60,0.00,,,0.00,WUHU21623XXSP,2013-06-19 15:53:00,
2013-06-19 10:58:00,85.3,68.3,30.02,West,270,0.0,0.0,57,0.00,,,0.00,WUHU21623XXSP,2013-06-19 15:58:00,
2013-06-19 11:03:00,85.5,69.5,30.02,SE,135,0.0,0.0,59,0.00,,,0.00,WUHU21623XXSP,2013-06-19 16:03:00,
2013-06-19 11:08:00,86.2,69.1,30.02,ESE,112,0.0,0.0,57,0.00,,,0.00,WUHU21623XXSP,2013-06-19 16:08:00,
2013-06-19 11:13:00,86.7,69.1,30.02,South,180,0.0,0.0,56,0.00,,,0.00,WUHU21623XXSP,2013-06-19 16:13:00,
2013-06-19 11:18:00,86.9,68.8,30.02,SSW,202,0.0,0.0,55,0.00,,,0.00,WUHU21623XXSP,2013-06-19 16:18:00,
2013-06-19 11:23:00,86.9,67.7,30.02,SSW,202,0.0,0.0,53,0.00,,,0.00,WUHU21623XXSP,2013-06-19 16:23:00,
2013-06-19 11:28:00,86.7,67.5,30.02,WNW,292,0.0,0.0,53,0.00,,,0.00,WUHU21623XXSP,2013-06-19 16:28:00,
2013-06-19 11:33:00,86.7,67.5,30.03,SSW,202,0.0,0.0,53,0.00,,,0.00,WUHU21623XXSP,2013-06-19 16:33:00,
2013-06-19 11:38:00,86.7,67.5,30.03,ESE,112,0.0,0.0,53,0.00,,,0.00,WUHU21623XXSP,2013-06-19 16:38:00,
2013-06-19 11:43:00,87.1,67.3,30.03,West,270,0.0,0.0,52,0.00,,,0.00,WUHU21623XXSP,2013-06-19 16:43:00,
2013-06-19 11:48:00,87.3,66.4,30.02,North,0,0.0,0.0,50,0.00,,,0.00,WUHU21623XXSP,2013-06-19 16:48:00,
2013-06-19 11:53:00,87.3,67.0,30.03,ESE,112,0.0,0.0,51,0.00,,,0.00,WUHU21623XXSP,2013-06-19 16:53:00,
2013-06-19 11:58:00,87.1,66.8,30.03,East,90,0.0,0.0,51,0.00,,,0.00,WUHU21623XXSP,2013-06-19 16:58:00,
2013-06-19 12:03:00,87.1,66.3,30.02,ENE,67,0.0,0.0,50,0.00,,,0.00,WUHU21623XXSP,2013-06-19 17:03:00,
2013-06-19 12:08:00,86.9,66.6,30.02,SSE,157,0.0,0.0,51,0.00,,,0.00,WUHU21623XXSP,2013-06-19 17:08:00,
2013-06-19 12:13:00,86.9,67.7,30.02,WNW,292,0.0,0.0,53,0.00,,,0.00,WUHU21623XXSP,2013-06-19 17:13:00,
2013-06-19 12:18:00,86.9,67.2,30.02,East,90,0.0,0.0,52,0.00,,,0.00,WUHU21623XXSP,2013-06-19 17:18:00,
2013-06-19 12:23:00,86.9,67.2,30.02,ENE,67,0.0,0.0,52,0.00,,,0.00,WUHU21623XXSP,2013-06-19 17:23:00,
2013-06-19 12:28:00,87.3,66.4,30.02,West,270,0.0,0.0,50,0.00,,,0.00,WUHU21623XXSP,2013-06-19 17:28:00,
2013-06-19 12:33:00,87.3,66.4,30.02,WSW,247,0.0,0.0,50,0.00,,,0.00,WUHU21623XXSP,2013-06-19 17:33:00,
2013-06-19 12:38:00,87.4,67.1,30.02,NNE,22,0.0,0.0,51,0.00,,,0.00,WUHU21623XXSP,2013-06-19 17:38:00,
2013-06-19 12:43:00,88.0,66.4,30.02,ESE,112,0.0,0.0,49,0.00,,,0.00,WUHU21623XXSP,2013-06-19 17:43:00,
2013-06-19 12:48:00,88.5,66.9,30.01,SW,225,0.0,0.0,49,0.00,,,0.00,WUHU21623XXSP,2013-06-19 17:48:00,
2013-06-19 12:53:00,89.1,66.1,30.01,ESE,112,0.0,0.0,47,0.00,,,0.00,WUHU21623XXSP,2013-06-19 17:53:00,
2013-06-19 12:58:00,88.7,65.8,30.01,ESE,112,0.0,0.0,47,0.00,,,0.00,WUHU21623XXSP,2013-06-19 17:58:00,
2013-06-19 13:03:00,88.7,66.5,30.01,East,90,0.0,0.0,48,0.00,,,0.00,WUHU21623XXSP,2013-06-19 18:03:00,
2013-06-19 13:08:00,89.8,68.2,30.01,SE,135,0.0,0.0,50,0.00,,,0.00,WUHU21623XXSP,2013-06-19 18:08:00,
2013-06-19 13:13:00,90.0,67.6,30.01,ESE,112,0.0,0.0,48,0.00,,,0.00,WUHU21623XXSP,2013-06-19 18:13:00,
2013-06-19 13:18:00,90.5,67.4,30.01,ESE,112,0.0,0.0,47,0.00,,,0.00,WUHU21623XXSP,2013-06-19 18:18:00,
2013-06-19 13:23:00,90.3,67.9,30.01,SE,135,0.0,0.0,48,0.00,,,0.00,WUHU21623XXSP,2013-06-19 18:23:00,
2013-06-19 13:28:00,90.9,69.0,30.01,SE,135,0.0,0.0,49,0.00,,,0.00,WUHU21623XXSP,2013-06-19 18:28:00,
2013-06-19 13:33:00,91.2,67.4,30.01,East,90,0.0,0.0,46,0.00,,,0.00,WUHU21623XXSP,2013-06-19 18:33:00,
2013-06-19 13:38:00,91.0,65.3,30.00,NNW,337,0.0,0.0,43,0.00,,,0.00,WUHU21623XXSP,2013-06-19 18:38:00,
2013-06-19 13:43:00,91.0,67.2,30.00,ESE,112,0.0,0.0,46,0.00,,,0.00,WUHU21623XXSP,2013-06-19 18:43:00,
2013-06-19 13:48:00,91.6,67.1,30.00,ESE,112,0.0,0.0,45,0.00,,,0.00,WUHU21623XXSP,2013-06-19 18:48:00,
2013-06-19 13:53:00,91.0,66.9,30.00,ESE,112,0.0,0.0,44,0.00,,,0.00,WUHU21623XXSP,2013-06-19 18:53:00,
2013-06-19 13:58:00,90.5,65.5,30.00,ESE,112,0.0,0.0,44,0.00,,,0.00,WUHU21623XXSP,2013-06-19 18:58:00,
2013-06-19 14:03:00,89.8,65.5,30.00,ESE,112,0.0,0.0,45,0.00,,,0.00,WUHU21623XXSP,2013-06-19 19:03:00,
2013-06-19 14:08:00,89.6,67.2,29.99,ESE,112,0.0,0.0,48,0.00,,,0.00,WUHU21623XXSP,2013-06-19 19:08:00,
2013-06-19 14:13:00,89.8,66.1,30.00,ESE,112,0.0,0.0,46,0.00,,,0.00,WUHU21623XXSP,2013-06-19 19:13:00,
2013-06-19 14:18:00,89.8,66.8,30.00,NW,315,0.0,0.0,47,0.00,,,0.00,WUHU21623XXSP,2013-06-19 19:18:00,
2013-06-19 14:23:00,90.5,67.4,29.99,ESE,112,0.0,0.0,47,0.00,,,0.00,WUHU21623XXSP,2013-06-19 19:23:00,
2013-06-19 14:28:00,91.0,68.5,29.99,ESE,112,0.0,0.0,48,0.00,,,0.00,WUHU21623XXSP,2013-06-19 19:28:00,
2013-06-19 14:33:00,91.6,67.7,29.99,WSW,247,0.0,0.0,46,0.00,,,0.00,WUHU21623XXSP,2013-06-19 19:33:00,
2013-06-19 14:38:00,91.8,67.7,29.99,ESE,112,0.0,0.0,45,0.00,,,0.00,WUHU21623XXSP,2013-06-19 19:38:00,
2013-06-19 14:43:00,92.1,68.2,29.99,ESE,112,0.0,0.0,46,0.00,,,0.00,WUHU21623XXSP,2013-06-19 19:43:00,
2013-06-19 14:48:00,92.3,67.1,29.99,ESE,112,0.0,0.0,44,0.00,,,0.00,WUHU21623XXSP,2013-06-19 19:48:00,
2013-06-19 14:53:00,92.7,66.8,29.98,East,90,0.0,0.0,43,0.00,,,0.00,WUHU21623XXSP,2013-06-19 19:53:00,
2013-06-19 14:58:00,92.7,66.8,29.98,ESE,112,0.0,0.0,43,0.00,,,0.00,WUHU21623XXSP,2013-06-19 19:58:00,
2013-06-19 15:03:00,92.8,66.9,29.98,ESE,112,0.0,0.0,43,0.00,,,0.00,WUHU21623XXSP,2013-06-19 20:03:00,
2013-06-19 15:08:00,93.2,65.9,29.98,ENE,67,0.0,0.0,41,0.00,,,0.00,WUHU21623XXSP,2013-06-19 20:08:00,
2013-06-19 15:13:00,92.7,65.5,29.99,SSW,202,0.0,0.0,41,0.00,,,0.00,WUHU21623XXSP,2013-06-19 20:13:00,
2013-06-19 15:18:00,92.5,65.3,29.99,ESE,112,0.0,0.0,41,0.00,,,0.00,WUHU21623XXSP,2013-06-19 20:18:00,
2013-06-19 15:23:00,92.7,65.9,29.98,ESE,112,0.0,0.0,42,0.00,,,0.00,WUHU21623XXSP,2013-06-19 20:23:00,
2013-06-19 15:28:00,92.8,66.3,29.99,SE,135,0.0,0.0,42,0.00,,,0.00,WUHU21623XXSP,2013-06-19 20:28:00,
2013-06-19 15:33:00,93.0,65.8,29.99,ESE,112,0.0,0.0,41,0.00,,,0.00,WUHU21623XXSP,2013-06-19 20:33:00,
2013-06-19 15:38:00,93.4,66.1,29.99,SSW,202,0.0,0.0,41,0.00,,,0.00,WUHU21623XXSP,2013-06-19 20:38:00,
2013-06-19 15:43:00,93.4,66.1,29.98,SE,135,0.0,0.0,41,0.00,,,0.00,WUHU21623XXSP,2013-06-19 20:43:00,
2013-06-19 15:48:00,93.4,65.5,29.98,NW,315,0.0,0.0,40,0.00,,,0.00,WUHU21623XXSP,2013-06-19 20:48:00,
2013-06-19 15:53:00,92.8,63.4,29.98,WNW,292,0.0,0.0,38,0.00,,,0.00,WUHU21623XXSP,2013-06-19 20:53:00,
2013-06-19 15:58:00,92.3,62.9,29.98,West,270,0.0,0.0,38,0.00,,,0.00,WUHU21623XXSP,2013-06-19 20:58:00,
2013-06-19 16:03:00,92.1,62.7,29.98,SSW,202,0.0,0.0,38,0.00,,,0.00,WUHU21623XXSP,2013-06-19 21:03:00,
2013-06-19 16:08:00,92.3,65.1,29.98,SSE,157,0.0,0.0,41,0.00,,,0.00,WUHU21623XXSP,2013-06-19 21:08:00,
2013-06-19 16:13:00,92.7,64.8,29.98,South,180,0.0,0.0,40,0.00,,,0.00,WUHU21623XXSP,2013-06-19 21:13:00,
2013-06-19 16:18:00,93.4,66.8,29.98,SE,135,0.0,0.0,42,0.00,,,0.00,WUHU21623XXSP,2013-06-19 21:18:00,
2013-06-19 16:23:00,93.7,66.4,29.98,SW,225,0.0,0.0,41,0.00,,,0.00,WUHU21623XXSP,2013-06-19 21:23:00,
2013-06-19 16:28:00,93.7,65.8,29.98,West,270,0.0,0.0,40,0.00,,,0.00,WUHU21623XXSP,2013-06-19 21:28:00,
2013-06-19 16:33:00,93.9,66.6,29.98,ESE,112,0.0,0.0,41,0.00,,,0.00,WUHU21623XXSP,2013-06-19 21:33:00,
2013-06-19 16:38:00,94.3,66.3,29.98,ESE,112,0.0,0.0,40,0.00,,,0.00,WUHU21623XXSP,2013-06-19 21:38:00,
2013-06-19 16:43:00,94.1,66.1,30.00,SE,135,0.0,0.0,40,0.00,,,0.00,WUHU21623XXSP,2013-06-19 21:43:00,
2013-06-19 16:48:00,91.2,61.1,30.02,ENE,67,0.0,0.0,37,0.00,,,0.00,WUHU21623XXSP,2013-06-19 21:48:00,
2013-06-19 16:53:00,88.5,60.4,30.01,NNE,22,0.0,0.0,39,0.00,,,0.00,WUHU21623XXSP,2013-06-19 21:53:00,
2013-06-19 16:58:00,86.5,60.7,30.01,SSW,202,0.0,0.0,42,0.00,,,0.00,WUHU21623XXSP,2013-06-19 21:58:00,
2013-06-19 17:03:00,83.1,60.1,30.01,SSW,202,0.0,0.0,46,0.00,,,0.00,WUHU21623XXSP,2013-06-19 22:03:00,
2013-06-19 17:08:00,81.3,60.3,30.01,West,270,0.0,0.0,49,0.00,,,0.00,WUHU21623XXSP,2013-06-19 22:08:00,
2013-06-19 17:13:00,80.1,60.3,30.01,NW,315,0.0,0.0,51,0.00,,,0.00,WUHU21623XXSP,2013-06-19 22:13:00,
2013-06-19 17:18:00,78.4,60.9,30.01,WSW,247,0.0,0.0,55,0.00,,,0.00,WUHU21623XXSP,2013-06-19 22:18:00,
2013-06-19 17:23:00,78.1,61.1,30.00,WSW,247,0.0,0.0,56,0.00,,,0.00,WUHU21623XXSP,2013-06-19 22:23:00,
2013-06-19 17:28:00,77.9,61.4,30.00,SSW,202,0.0,0.0,57,0.00,,,0.00,WUHU21623XXSP,2013-06-19 22:28:00,
2013-06-19 17:33:00,77.5,61.6,29.99,SSW,202,0.0,0.0,58,0.00,,,0.00,WUHU21623XXSP,2013-06-19 22:33:00,
2013-06-19 17:38:00,77.5,62.1,29.99,SE,135,0.0,0.0,59,0.00,,,0.00,WUHU21623XXSP,2013-06-19 22:38:00,
2013-06-19 17:43:00,77.4,61.4,29.99,ESE,112,0.0,0.0,58,0.00,,,0.00,WUHU21623XXSP,2013-06-19 22:43:00,
2013-06-19 17:48:00,77.7,61.8,29.99,ESE,112,0.0,0.0,58,0.00,,,0.00,WUHU21623XXSP,2013-06-19 22:48:00,
2013-06-19 17:53:00,77.7,61.8,29.99,ESE,112,0.0,0.0,58,0.00,,,0.00,WUHU21623XXSP,2013-06-19 22:53:00,
2013-06-19 17:58:00,77.7,61.8,29.99,ESE,112,0.0,0.0,57,0.00,,,0.00,WUHU21623XXSP,2013-06-19 22:58:00,
2013-06-19 18:03:00,77.7,61.2,29.99,ENE,67,0.0,0.0,57,0.00,,,0.00,WUHU21623XXSP,2013-06-19 23:03:00,
2013-06-19 18:08:00,77.9,60.9,29.99,NE,45,0.0,0.0,56,0.00,,,0.00,WUHU21623XXSP,2013-06-19 23:08:00,
2013-06-19 18:13:00,77.9,61.4,29.99,West,270,0.0,0.0,57,0.00,,,0.00,WUHU21623XXSP,2013-06-19 23:13:00,
2013-06-19 18:18:00,78.1,62.1,29.99,WNW,292,0.0,0.0,58,0.00,,,0.00,WUHU21623XXSP,2013-06-19 23:18:00,
2013-06-19 18:23:00,78.3,63.3,29.99,NNW,337,0.0,0.0,60,0.00,,,0.00,WUHU21623XXSP,2013-06-19 23:23:00,
2013-06-19 18:28:00,78.1,62.6,29.98,NNW,337,0.0,0.0,59,0.00,,,0.00,WUHU21623XXSP,2013-06-19 23:28:00,
2013-06-19 18:33:00,78.1,62.6,29.99,NNW,337,0.0,0.0,59,0.00,,,0.00,WUHU21623XXSP,2013-06-19 23:33:00,
2013-06-19 18:38:00,78.1,62.6,29.99,NNW,337,0.0,0.0,59,0.00,,,0.00,WUHU21623XXSP,2013-06-19 23:38:00,
2013-06-19 18:43:00,78.1,62.6,29.99,NNW,337,0.0,0.0,59,0.00,,,0.00,WUHU21623XXSP,2013-06-19 23:43:00,
2013-06-19 18:48:00,77.9,62.4,29.99,NNW,337,0.0,0.0,59,0.00,,,0.00,WUHU21623XXSP,2013-06-19 23:48:00,
2013-06-19 18:53:00,77.9,63.4,29.99,NNW,337,0.0,0.0,61,0.00,,,0.00,WUHU21623XXSP,2013-06-19 23:53:00,
2013-06-19 18:58:00,77.5,63.0,29.99,NNW,337,0.0,0.0,61,0.00,,,0.00,WUHU21623XXSP,2013-06-19 23:58:00,
2013-06-19 19:03:00,77.4,62.9,29.99,NNW,337,0.0,0.0,61,0.00,,,0.00,WUHU21623XXSP,2013-06-20 00:03:00,
2013-06-19 19:08:00,77.2,63.1,29.99,NNW,337,0.0,0.0,62,0.00,,,0.00,WUHU21623XXSP,2013-06-20 00:08:00,
2013-06-19 19:13:00,77.0,63.4,29.99,NNW,337,0.0,0.0,63,0.00,,,0.00,WUHU21623XXSP,2013-06-20 00:13:00,
2013-06-19 19:18:00,76.8,63.2,29.99,NNW,337,0.0,0.0,63,0.00,,,0.00,WUHU21623XXSP,2013-06-20 00:18:00,
2013-06-19 19:23:00,76.6,63.1,29.99,NNW,337,0.0,0.0,63,0.00,,,0.00,WUHU21623XXSP,2013-06-20 00:23:00,
2013-06-19 19:28:00,76.5,63.3,29.99,ESE,112,0.0,0.0,64,0.00,,,0.00,WUHU21623XXSP,2013-06-20 00:28:00,
2013-06-19 19:33:00,76.1,63.0,29.99,ESE,112,0.0,0.0,64,0.00,,,0.00,WUHU21623XXSP,2013-06-20 00:33:00,
2013-06-19 19:38:00,76.3,63.2,29.99,ESE,112,0.0,0.0,64,0.00,,,0.00,WUHU21623XXSP,2013-06-20 00:38:00,
2013-06-19 19:43:00,76.5,63.8,29.99,ESE,112,0.0,0.0,65,0.00,,,0.00,WUHU21623XXSP,2013-06-20 00:43:00,
2013-06-19 19:48:00,76.1,63.4,29.99,ESE,112,0.0,0.0,65,0.00,,,0.00,WUHU21623XXSP,2013-06-20 00:48:00,
2013-06-19 19:53:00,76.1,63.4,29.99,ESE,112,0.0,0.0,65,0.00,,,0.00,WUHU21623XXSP,2013-06-20 00:53:00,
2013-06-19 19:58:00,76.1,63.4,29.99,ESE,112,0.0,0.0,65,0.00,,,0.00,WUHU21623XXSP,2013-06-20 00:58:00,
2013-06-19 20:03:00,75.9,63.7,29.99,ESE,112,0.0,0.0,66,0.00,,,0.00,WUHU21623XXSP,2013-06-20 01:03:00,
2013-06-19 20:08:00,75.7,64.0,29.99,ESE,112,0.0,0.0,67,0.00,,,0.00,WUHU21623XXSP,2013-06-20 01:08:00,
2013-06-19 20:13:00,75.4,63.6,29.99,ESE,112,0.0,0.0,67,0.00,,,0.00,WUHU21623XXSP,2013-06-20 01:13:00,
2013-06-19 20:18:00,75.2,63.5,29.99,ESE,112,0.0,0.0,67,0.00,,,0.00,WUHU21623XXSP,2013-06-20 01:18:00,
2013-06-19 20:23:00,74.8,63.1,29.99,ESE,112,0.0,0.0,67,0.00,,,0.00,WUHU21623XXSP,2013-06-20 01:23:00,
2013-06-19 20:28:00,74.7,63.0,29.99,ESE,112,0.0,0.0,67,0.00,,,0.00,WUHU21623XXSP,2013-06-20 01:28:00,
2013-06-19 20:33:00,74.5,62.8,29.99,ESE,112,0.0,0.0,67,0.00,,,0.00,WUHU21623XXSP,2013-06-20 01:33:00,
2013-06-19 20:38:00,74.1,62.9,29.99,ESE,112,0.0,0.0,68,0.00,,,0.00,WUHU21623XXSP,2013-06-20 01:38:00,
2013-06-19 20:43:00,74.1,63.3,29.99,ESE,112,0.0,0.0,69,0.00,,,0.00,WUHU21623XXSP,2013-06-20 01:43:00,
2013-06-19 20:48:00,73.6,62.9,29.99,ESE,112,0.0,0.0,69,0.00,,,0.00,WUHU21623XXSP,2013-06-20 01:48:00,
2013-06-19 20:53:00,73.0,62.3,30.00,ESE,112,0.0,0.0,69,0.00,,,0.00,WUHU21623XXSP,2013-06-20 01:53:00,
2013-06-19 20:58:00,72.9,62.2,30.00,ESE,112,0.0,0.0,69,0.00,,,0.00,WUHU21623XXSP,2013-06-20 01:58:00,
2013-06-19 21:03:00,72.7,62.4,30.00,ESE,112,0.0,0.0,70,0.00,,,0.00,WUHU21623XXSP,2013-06-20 02:03:00,
2013-06-19 21:08:00,72.5,62.6,30.00,ESE,112,0.0,0.0,71,0.00,,,0.00,WUHU21623XXSP,2013-06-20 02:08:00,
2013-06-19 21:13:00,72.3,62.4,30.01,ESE,112,0.0,0.0,71,0.00,,,0.00,WUHU21623XXSP,2013-06-20 02:13:00,
2013-06-19 21:18:00,72.1,62.6,30.01,ESE,112,0.0,0.0,72,0.00,,,0.00,WUHU21623XXSP,2013-06-20 02:18:00,
2013-06-19 21:23:00,72.0,62.8,30.01,ESE,112,0.0,0.0,73,0.00,,,0.00,WUHU21623XXSP,2013-06-20 02:23:00,
2013-06-19 21:28:00,71.8,63.0,30.01,ESE,112,0.0,0.0,74,0.00,,,0.00,WUHU21623XXSP,2013-06-20 02:28:00,
2013-06-19 21:33:00,71.8,63.4,30.02,ESE,112,0.0,0.0,75,0.00,,,0.00,WUHU21623XXSP,2013-06-20 02:33:00,
2013-06-19 21:38:00,71.4,63.4,30.02,ESE,112,0.0,0.0,76,0.00,,,0.00,WUHU21623XXSP,2013-06-20 02:38:00,
2013-06-19 21:43:00,71.2,63.2,30.02,ESE,112,0.0,0.0,76,0.00,,,0.00,WUHU21623XXSP,2013-06-20 02:43:00,
2013-06-19 21:48:00,71.2,63.2,30.02,ESE,112,0.0,0.0,76,0.00,,,0.00,WUHU21623XXSP,2013-06-20 02:48:00,
2013-06-19 21:53:00,71.1,63.1,30.02,ESE,112,0.0,0.0,76,0.00,,,0.00,WUHU21623XXSP,2013-06-20 02:53:00,
2013-06-19 21:58:00,71.1,63.1,30.02,ESE,112,0.0,0.0,76,0.00,,,0.00,WUHU21623XXSP,2013-06-20 02:58:00,
2013-06-19 22:03:00,71.1,63.4,30.02,ESE,112,0.0,0.0,77,0.00,,,0.00,WUHU21623XXSP,2013-06-20 03:03:00,
2013-06-19 22:08:00,71.1,63.8,30.03,ESE,112,0.0,0.0,78,0.00,,,0.00,WUHU21623XXSP,2013-06-20 03:08:00,
2013-06-19 22:13:00,70.9,63.3,30.03,ESE,112,0.0,0.0,77,0.00,,,0.00,WUHU21623XXSP,2013-06-20 03:13:00,
2013-06-19 22:18:00,70.9,63.3,30.03,ESE,112,0.0,0.0,77,0.00,,,0.00,WUHU21623XXSP,2013-06-20 03:18:00,
2013-06-19 22:23:00,70.5,62.9,30.03,ESE,112,0.0,0.0,77,0.00,,,0.00,WUHU21623XXSP,2013-06-20 03:23:00,
2013-06-19 22:28:00,70.5,63.3,30.02,ESE,112,0.0,0.0,78,0.00,,,0.00,WUHU21623XXSP,2013-06-20 03:28:00,
2013-06-19 22:33:00,70.5,63.3,30.02,ESE,112,0.0,0.0,78,0.00,,,0.00,WUHU21623XXSP,2013-06-20 03:33:00,
2013-06-19 22:38:00,70.2,62.9,30.03,ESE,112,0.0,0.0,78,0.00,,,0.00,WUHU21623XXSP,2013-06-20 03:38:00,
2013-06-19 22:43:00,70.2,62.9,30.02,ESE,112,0.0,0.0,78,0.00,,,0.00,WUHU21623XXSP,2013-06-20 03:43:00,
2013-06-19 22:48:00,70.2,62.9,30.02,ESE,112,0.0,0.0,78,0.00,,,0.00,WUHU21623XXSP,2013-06-20 03:48:00,
2013-06-19 22:53:00,70.0,62.7,30.02,ESE,112,0.0,0.0,78,0.00,,,0.00,WUHU21623XXSP,2013-06-20 03:53:00,
2013-06-19 22:58:00,69.8,62.6,30.02,ESE,112,0.0,0.0,78,0.00,,,0.00,WUHU21623XXSP,2013-06-20 03:58:00,
2013-06-19 23:01:00,69.8,62.6,30.02,ESE,112,0.0,0.0,78,0.00,,,0.00,WUHU21623XXSP,2013-06-20 04:01:00,
2013-06-19 23:06:00,69.6,62.4,30.02,ESE,112,0.0,0.0,78,0.00,,,0.00,WUHU21623XXSP,2013-06-20 04:06:00,
2013-06-19 23:11:00,69.4,62.6,30.02,ESE,112,0.0,0.0,79,0.00,,,0.00,WUHU21623XXSP,2013-06-20 04:11:00,
2013-06-19 23:16:00,69.4,62.6,30.02,ESE,112,0.0,0.0,79,0.00,,,0.00,WUHU21623XXSP,2013-06-20 04:16:00,
2013-06-19 23:21:00,69.4,62.6,30.02,ESE,112,0.0,0.0,79,0.00,,,0.00,WUHU21623XXSP,2013-06-20 04:21:00,
2013-06-19 23:26:00,69.4,62.6,30.02,ESE,112,0.0,0.0,79,0.00,,,0.00,WUHU21623XXSP,2013-06-20 04:26:00,
2013-06-19 23:31:00,69.3,62.5,30.02,ESE,112,0.0,0.0,79,0.00,,,0.00,WUHU21623XXSP,2013-06-20 04:31:00,
2013-06-19 23:36:00,69.3,62.8,30.02,ESE,112,0.0,0.0,80,0.00,,,0.00,WUHU21623XXSP,2013-06-20 04:36:00,
2013-06-19 23:41:00,69.3,62.8,30.02,ESE,112,0.0,0.0,80,0.00,,,0.00,WUHU21623XXSP,2013-06-20 04:41:00,
2013-06-19 23:46:00,69.3,62.8,30.02,ESE,112,0.0,0.0,80,0.00,,,0.00,WUHU21623XXSP,2013-06-20 04:46:00,
2013-06-19 23:51:00,69.1,63.0,30.03,ESE,112,0.0,0.0,81,0.00,,,0.00,WUHU21623XXSP,2013-06-20 04:51:00,
2013-06-19 23:56:00,69.3,63.2,30.03,ESE,112,0.0,0.0,81,0.00,,,0.00,WUHU21623XXSP,2013-06-20 04:56:00,